sensor_id;sensor_type;location;lat;lon;timestamp;temperature;humidity
20672;DHT22;10495;50.922;4.760;2023-08-06T00:00:13;17.40;92.20
20672;DHT22;10495;50.922;4.760;2023-08-06T00:02:39;17.30;92.20
20672;DHT22;10495;50.922;4.760;2023-08-06T00:05:05;17.20;92.40
20672;DHT22;10495;50.922;4.760;2023-08-06T00:07:31;17.20;92.60
20672;DHT22;10495;50.922;4.760;2023-08-06T00:09:56;17.20;92.40
20672;DHT22;10495;50.922;4.760;2023-08-06T00:12:22;17.10;92.60
20672;DHT22;10495;50.922;4.760;2023-08-06T00:14:51;17.10;92.70
20672;DHT22;10495;50.922;4.760;2023-08-06T00:17:17;17.30;92.40
20672;DHT22;10495;50.922;4.760;2023-08-06T00:19:43;17.30;92.40
20672;DHT22;10495;50.922;4.760;2023-08-06T00:22:09;17.40;92.20
20672;DHT22;10495;50.922;4.760;2023-08-06T00:24:35;17.20;92.50
20672;DHT22;10495;50.922;4.760;2023-08-06T00:27:01;17.10;92.70
20672;DHT22;10495;50.922;4.760;2023-08-06T00:29:26;17.00;92.80
20672;DHT22;10495;50.922;4.760;2023-08-06T00:31:52;17.10;92.90
20672;DHT22;10495;50.922;4.760;2023-08-06T00:34:17;17.20;92.50
20672;DHT22;10495;50.922;4.760;2023-08-06T00:36:43;17.20;92.70
20672;DHT22;10495;50.922;4.760;2023-08-06T00:39:09;17.10;92.80
20672;DHT22;10495;50.922;4.760;2023-08-06T00:41:34;17.20;92.80
20672;DHT22;10495;50.922;4.760;2023-08-06T00:44:00;17.20;92.70
20672;DHT22;10495;50.922;4.760;2023-08-06T00:46:26;17.20;92.90
20672;DHT22;10495;50.922;4.760;2023-08-06T00:48:52;17.10;92.90
20672;DHT22;10495;50.922;4.760;2023-08-06T00:51:19;17.10;93.00
20672;DHT22;10495;50.922;4.760;2023-08-06T00:53:46;17.10;93.00
20672;DHT22;10495;50.922;4.760;2023-08-06T00:56:12;17.10;93.00
20672;DHT22;10495;50.922;4.760;2023-08-06T00:58:38;17.00;93.10
20672;DHT22;10495;50.922;4.760;2023-08-06T01:01:04;17.00;93.10
20672;DHT22;10495;50.922;4.760;2023-08-06T01:03:30;17.00;93.10
20672;DHT22;10495;50.922;4.760;2023-08-06T01:05:56;17.00;93.10
20672;DHT22;10495;50.922;4.760;2023-08-06T01:11:30;17.10;93.20
20672;DHT22;10495;50.922;4.760;2023-08-06T01:14:23;17.00;93.30
20672;DHT22;10495;50.922;4.760;2023-08-06T01:16:52;17.00;93.20
20672;DHT22;10495;50.922;4.760;2023-08-06T01:19:19;17.10;93.20
20672;DHT22;10495;50.922;4.760;2023-08-06T01:21:45;17.10;93.20
20672;DHT22;10495;50.922;4.760;2023-08-06T01:24:11;17.10;93.10
20672;DHT22;10495;50.922;4.760;2023-08-06T01:26:43;17.10;93.10
20672;DHT22;10495;50.922;4.760;2023-08-06T01:29:19;17.10;93.10
20672;DHT22;10495;50.922;4.760;2023-08-06T01:31:48;17.10;93.10
20672;DHT22;10495;50.922;4.760;2023-08-06T01:34:24;17.00;93.20
20672;DHT22;10495;50.922;4.760;2023-08-06T01:36:51;17.10;93.20
20672;DHT22;10495;50.922;4.760;2023-08-06T01:39:17;17.10;93.20
20672;DHT22;10495;50.922;4.760;2023-08-06T01:41:47;17.00;93.20
20672;DHT22;10495;50.922;4.760;2023-08-06T01:44:12;17.10;93.30
20672;DHT22;10495;50.922;4.760;2023-08-06T01:46:38;17.10;93.20
20672;DHT22;10495;50.922;4.760;2023-08-06T01:49:04;17.10;93.30
20672;DHT22;10495;50.922;4.760;2023-08-06T01:51:29;17.10;93.30
20672;DHT22;10495;50.922;4.760;2023-08-06T01:53:55;17.10;93.30
20672;DHT22;10495;50.922;4.760;2023-08-06T01:56:20;17.10;93.30
20672;DHT22;10495;50.922;4.760;2023-08-06T01:58:46;17.10;93.30
20672;DHT22;10495;50.922;4.760;2023-08-06T02:01:12;17.20;93.20
20672;DHT22;10495;50.922;4.760;2023-08-06T02:03:37;17.20;93.30
20672;DHT22;10495;50.922;4.760;2023-08-06T02:06:03;17.20;93.20
20672;DHT22;10495;50.922;4.760;2023-08-06T02:08:29;17.20;93.30
20672;DHT22;10495;50.922;4.760;2023-08-06T02:10:54;17.20;93.20
20672;DHT22;10495;50.922;4.760;2023-08-06T02:13:20;17.20;93.30
20672;DHT22;10495;50.922;4.760;2023-08-06T02:15:46;17.20;93.30
20672;DHT22;10495;50.922;4.760;2023-08-06T02:18:15;17.20;93.30
20672;DHT22;10495;50.922;4.760;2023-08-06T02:20:41;17.20;93.30
20672;DHT22;10495;50.922;4.760;2023-08-06T02:23:07;17.20;93.30
20672;DHT22;10495;50.922;4.760;2023-08-06T02:25:33;17.30;93.30
20672;DHT22;10495;50.922;4.760;2023-08-06T02:27:58;17.30;93.30
20672;DHT22;10495;50.922;4.760;2023-08-06T02:30:24;17.30;93.30
20672;DHT22;10495;50.922;4.760;2023-08-06T02:32:50;17.30;93.30
20672;DHT22;10495;50.922;4.760;2023-08-06T02:35:15;17.30;93.40
20672;DHT22;10495;50.922;4.760;2023-08-06T02:37:41;17.30;93.40
20672;DHT22;10495;50.922;4.760;2023-08-06T02:40:07;17.40;93.30
20672;DHT22;10495;50.922;4.760;2023-08-06T02:42:33;17.40;93.40
20672;DHT22;10495;50.922;4.760;2023-08-06T02:44:58;17.40;93.20
20672;DHT22;10495;50.922;4.760;2023-08-06T02:47:24;17.40;93.20
20672;DHT22;10495;50.922;4.760;2023-08-06T02:49:50;17.40;93.20
20672;DHT22;10495;50.922;4.760;2023-08-06T02:52:15;17.50;93.20
20672;DHT22;10495;50.922;4.760;2023-08-06T02:54:41;17.40;93.10
20672;DHT22;10495;50.922;4.760;2023-08-06T02:57:06;17.40;93.10
20672;DHT22;10495;50.922;4.760;2023-08-06T02:59:32;17.40;93.10
20672;DHT22;10495;50.922;4.760;2023-08-06T03:01:58;17.40;93.10
20672;DHT22;10495;50.922;4.760;2023-08-06T03:04:23;17.40;93.10
20672;DHT22;10495;50.922;4.760;2023-08-06T03:06:50;17.40;93.20
20672;DHT22;10495;50.922;4.760;2023-08-06T03:09:16;17.40;93.20
20672;DHT22;10495;50.922;4.760;2023-08-06T03:11:42;17.40;93.30
20672;DHT22;10495;50.922;4.760;2023-08-06T03:14:08;17.50;93.20
20672;DHT22;10495;50.922;4.760;2023-08-06T03:16:34;17.50;93.20
20672;DHT22;10495;50.922;4.760;2023-08-06T03:19:00;17.50;93.00
20672;DHT22;10495;50.922;4.760;2023-08-06T03:21:25;17.50;93.00
20672;DHT22;10495;50.922;4.760;2023-08-06T03:23:51;17.50;93.10
20672;DHT22;10495;50.922;4.760;2023-08-06T03:26:17;17.50;93.10
20672;DHT22;10495;50.922;4.760;2023-08-06T03:28:42;17.50;93.20
20672;DHT22;10495;50.922;4.760;2023-08-06T03:31:08;17.50;93.20
20672;DHT22;10495;50.922;4.760;2023-08-06T03:33:34;17.50;93.20
20672;DHT22;10495;50.922;4.760;2023-08-06T03:35:59;17.50;93.10
20672;DHT22;10495;50.922;4.760;2023-08-06T03:38:25;17.60;93.00
20672;DHT22;10495;50.922;4.760;2023-08-06T03:40:51;17.50;93.10
20672;DHT22;10495;50.922;4.760;2023-08-06T03:43:17;17.50;93.00
20672;DHT22;10495;50.922;4.760;2023-08-06T03:45:42;17.40;93.10
20672;DHT22;10495;50.922;4.760;2023-08-06T03:48:08;17.40;93.30
20672;DHT22;10495;50.922;4.760;2023-08-06T03:50:34;17.30;93.30
20672;DHT22;10495;50.922;4.760;2023-08-06T03:53:00;17.30;93.40
20672;DHT22;10495;50.922;4.760;2023-08-06T03:55:26;17.30;93.40
20672;DHT22;10495;50.922;4.760;2023-08-06T03:57:51;17.30;93.50
20672;DHT22;10495;50.922;4.760;2023-08-06T04:00:17;17.30;93.50
20672;DHT22;10495;50.922;4.760;2023-08-06T04:02:43;17.30;93.50
20672;DHT22;10495;50.922;4.760;2023-08-06T04:05:09;17.40;93.30
20672;DHT22;10495;50.922;4.760;2023-08-06T04:07:34;17.50;93.30
20672;DHT22;10495;50.922;4.760;2023-08-06T04:10:03;17.40;93.30
20672;DHT22;10495;50.922;4.760;2023-08-06T04:12:29;17.40;93.50
20672;DHT22;10495;50.922;4.760;2023-08-06T04:14:57;17.60;93.10
20672;DHT22;10495;50.922;4.760;2023-08-06T04:17:22;17.60;93.20
20672;DHT22;10495;50.922;4.760;2023-08-06T04:19:53;17.40;93.30
20672;DHT22;10495;50.922;4.760;2023-08-06T04:22:19;17.30;93.60
20672;DHT22;10495;50.922;4.760;2023-08-06T04:24:45;17.10;93.70
20672;DHT22;10495;50.922;4.760;2023-08-06T04:27:11;17.20;93.80
20672;DHT22;10495;50.922;4.760;2023-08-06T04:29:37;17.20;93.90
20672;DHT22;10495;50.922;4.760;2023-08-06T04:32:05;17.30;93.80
20672;DHT22;10495;50.922;4.760;2023-08-06T04:34:31;17.40;93.70
20672;DHT22;10495;50.922;4.760;2023-08-06T04:36:57;17.30;93.60
20672;DHT22;10495;50.922;4.760;2023-08-06T04:39:22;17.30;93.70
20672;DHT22;10495;50.922;4.760;2023-08-06T04:41:48;17.30;94.10
20672;DHT22;10495;50.922;4.760;2023-08-06T04:44:14;17.40;93.70
20672;DHT22;10495;50.922;4.760;2023-08-06T04:46:39;17.40;93.70
20672;DHT22;10495;50.922;4.760;2023-08-06T04:49:05;17.40;93.80
20672;DHT22;10495;50.922;4.760;2023-08-06T04:51:30;17.40;93.60
20672;DHT22;10495;50.922;4.760;2023-08-06T04:53:57;17.10;93.70
20672;DHT22;10495;50.922;4.760;2023-08-06T04:56:23;17.10;94.00
20672;DHT22;10495;50.922;4.760;2023-08-06T04:58:49;17.10;93.60
20672;DHT22;10495;50.922;4.760;2023-08-06T05:01:15;17.20;93.50
20672;DHT22;10495;50.922;4.760;2023-08-06T05:03:40;16.80;94.00
20672;DHT22;10495;50.922;4.760;2023-08-06T05:06:06;16.40;94.50
20672;DHT22;10495;50.922;4.760;2023-08-06T05:08:32;16.30;94.90
20672;DHT22;10495;50.922;4.760;2023-08-06T05:10:57;16.20;94.90
20672;DHT22;10495;50.922;4.760;2023-08-06T05:13:23;16.10;94.90
20672;DHT22;10495;50.922;4.760;2023-08-06T05:15:49;16.00;95.00
20672;DHT22;10495;50.922;4.760;2023-08-06T05:18:14;15.90;95.10
20672;DHT22;10495;50.922;4.760;2023-08-06T05:20:42;15.80;95.10
20672;DHT22;10495;50.922;4.760;2023-08-06T05:23:07;15.70;94.90
20672;DHT22;10495;50.922;4.760;2023-08-06T05:25:37;15.50;94.70
20672;DHT22;10495;50.922;4.760;2023-08-06T05:28:03;15.50;94.90
20672;DHT22;10495;50.922;4.760;2023-08-06T05:30:29;15.50;94.80
20672;DHT22;10495;50.922;4.760;2023-08-06T05:32:55;15.50;94.60
20672;DHT22;10495;50.922;4.760;2023-08-06T05:35:21;15.50;94.70
20672;DHT22;10495;50.922;4.760;2023-08-06T05:37:47;15.70;94.60
20672;DHT22;10495;50.922;4.760;2023-08-06T05:40:13;15.80;94.30
20672;DHT22;10495;50.922;4.760;2023-08-06T05:42:39;15.80;94.40
20672;DHT22;10495;50.922;4.760;2023-08-06T05:45:06;15.80;94.20
20672;DHT22;10495;50.922;4.760;2023-08-06T05:47:32;15.70;94.50
20672;DHT22;10495;50.922;4.760;2023-08-06T05:49:57;15.60;94.50
20672;DHT22;10495;50.922;4.760;2023-08-06T05:52:23;15.70;94.40
20672;DHT22;10495;50.922;4.760;2023-08-06T05:54:49;15.80;94.50
20672;DHT22;10495;50.922;4.760;2023-08-06T05:57:15;15.70;94.60
20672;DHT22;10495;50.922;4.760;2023-08-06T05:59:42;15.80;94.40
20672;DHT22;10495;50.922;4.760;2023-08-06T06:02:08;15.90;94.50
20672;DHT22;10495;50.922;4.760;2023-08-06T06:04:34;15.80;94.40
20672;DHT22;10495;50.922;4.760;2023-08-06T06:06:59;15.80;94.60
20672;DHT22;10495;50.922;4.760;2023-08-06T06:09:25;15.90;94.60
20672;DHT22;10495;50.922;4.760;2023-08-06T06:11:51;15.70;94.90
20672;DHT22;10495;50.922;4.760;2023-08-06T06:14:19;16.00;94.60
20672;DHT22;10495;50.922;4.760;2023-08-06T06:16:45;15.90;94.40
20672;DHT22;10495;50.922;4.760;2023-08-06T06:19:12;15.90;94.70
20672;DHT22;10495;50.922;4.760;2023-08-06T06:21:37;16.00;94.60
20672;DHT22;10495;50.922;4.760;2023-08-06T06:24:04;15.90;94.40
20672;DHT22;10495;50.922;4.760;2023-08-06T06:26:31;15.90;94.50
20672;DHT22;10495;50.922;4.760;2023-08-06T06:28:56;15.80;94.50
20672;DHT22;10495;50.922;4.760;2023-08-06T06:31:22;15.90;94.60
20672;DHT22;10495;50.922;4.760;2023-08-06T06:33:47;15.90;94.60
20672;DHT22;10495;50.922;4.760;2023-08-06T06:36:13;15.90;94.50
20672;DHT22;10495;50.922;4.760;2023-08-06T06:38:39;15.90;94.60
20672;DHT22;10495;50.922;4.760;2023-08-06T06:41:05;16.10;94.30
20672;DHT22;10495;50.922;4.760;2023-08-06T06:43:30;16.20;94.10
20672;DHT22;10495;50.922;4.760;2023-08-06T06:45:57;16.00;94.10
20672;DHT22;10495;50.922;4.760;2023-08-06T06:48:31;15.90;94.50
20672;DHT22;10495;50.922;4.760;2023-08-06T06:50:57;16.10;94.20
20672;DHT22;10495;50.922;4.760;2023-08-06T06:53:23;16.20;94.10
20672;DHT22;10495;50.922;4.760;2023-08-06T06:55:53;16.30;93.80
20672;DHT22;10495;50.922;4.760;2023-08-06T06:58:19;16.30;94.00
20672;DHT22;10495;50.922;4.760;2023-08-06T07:00:46;16.40;93.80
20672;DHT22;10495;50.922;4.760;2023-08-06T07:03:11;16.20;94.00
20672;DHT22;10495;50.922;4.760;2023-08-06T07:05:37;16.30;94.00
20672;DHT22;10495;50.922;4.760;2023-08-06T07:08:03;16.40;94.10
20672;DHT22;10495;50.922;4.760;2023-08-06T07:10:28;16.40;94.20
20672;DHT22;10495;50.922;4.760;2023-08-06T07:12:54;16.50;94.20
20672;DHT22;10495;50.922;4.760;2023-08-06T07:15:20;16.50;93.80
20672;DHT22;10495;50.922;4.760;2023-08-06T07:17:45;16.60;93.80
20672;DHT22;10495;50.922;4.760;2023-08-06T07:20:11;16.70;93.70
20672;DHT22;10495;50.922;4.760;2023-08-06T07:22:37;16.70;93.80
20672;DHT22;10495;50.922;4.760;2023-08-06T07:25:03;16.70;93.80
20672;DHT22;10495;50.922;4.760;2023-08-06T07:27:28;16.80;93.70
20672;DHT22;10495;50.922;4.760;2023-08-06T07:29:54;17.00;93.40
20672;DHT22;10495;50.922;4.760;2023-08-06T07:32:20;17.00;93.20
20672;DHT22;10495;50.922;4.760;2023-08-06T07:34:45;17.00;93.40
20672;DHT22;10495;50.922;4.760;2023-08-06T07:37:11;17.10;93.30
20672;DHT22;10495;50.922;4.760;2023-08-06T07:39:37;17.00;93.20
20672;DHT22;10495;50.922;4.760;2023-08-06T07:42:05;17.00;93.30
20672;DHT22;10495;50.922;4.760;2023-08-06T07:44:32;17.00;93.60
20672;DHT22;10495;50.922;4.760;2023-08-06T07:46:58;17.20;93.40
20672;DHT22;10495;50.922;4.760;2023-08-06T07:49:23;17.10;93.20
20672;DHT22;10495;50.922;4.760;2023-08-06T07:51:50;17.30;92.90
20672;DHT22;10495;50.922;4.760;2023-08-06T07:54:17;17.30;92.80
20672;DHT22;10495;50.922;4.760;2023-08-06T07:56:42;17.30;92.80
20672;DHT22;10495;50.922;4.760;2023-08-06T07:59:08;17.30;92.90
20672;DHT22;10495;50.922;4.760;2023-08-06T08:01:34;17.50;92.70
20672;DHT22;10495;50.922;4.760;2023-08-06T08:04:00;17.50;92.70
20672;DHT22;10495;50.922;4.760;2023-08-06T08:06:26;17.40;92.80
20672;DHT22;10495;50.922;4.760;2023-08-06T08:08:51;17.40;93.30
20672;DHT22;10495;50.922;4.760;2023-08-06T08:11:17;17.60;92.50
20672;DHT22;10495;50.922;4.760;2023-08-06T08:13:44;17.60;92.40
20672;DHT22;10495;50.922;4.760;2023-08-06T08:16:10;17.50;92.70
20672;DHT22;10495;50.922;4.760;2023-08-06T08:18:35;17.70;92.60
20672;DHT22;10495;50.922;4.760;2023-08-06T08:21:01;17.80;91.90
20672;DHT22;10495;50.922;4.760;2023-08-06T08:23:27;17.70;92.00
20672;DHT22;10495;50.922;4.760;2023-08-06T08:25:52;17.70;92.10
20672;DHT22;10495;50.922;4.760;2023-08-06T08:28:18;17.90;91.60
20672;DHT22;10495;50.922;4.760;2023-08-06T08:30:44;17.90;91.70
20672;DHT22;10495;50.922;4.760;2023-08-06T08:33:11;17.90;91.60
20672;DHT22;10495;50.922;4.760;2023-08-06T08:35:37;17.90;91.60
20672;DHT22;10495;50.922;4.760;2023-08-06T08:38:03;17.90;91.60
20672;DHT22;10495;50.922;4.760;2023-08-06T08:40:32;17.90;91.80
20672;DHT22;10495;50.922;4.760;2023-08-06T08:43:02;17.90;91.80
20672;DHT22;10495;50.922;4.760;2023-08-06T08:45:29;17.80;92.00
20672;DHT22;10495;50.922;4.760;2023-08-06T08:47:55;17.80;91.80
20672;DHT22;10495;50.922;4.760;2023-08-06T08:50:21;17.80;91.90
20672;DHT22;10495;50.922;4.760;2023-08-06T08:52:47;17.80;92.00
20672;DHT22;10495;50.922;4.760;2023-08-06T08:55:15;17.90;91.80
20672;DHT22;10495;50.922;4.760;2023-08-06T08:57:42;17.90;91.60
20672;DHT22;10495;50.922;4.760;2023-08-06T09:00:08;17.90;91.70
20672;DHT22;10495;50.922;4.760;2023-08-06T09:02:34;18.10;90.90
20672;DHT22;10495;50.922;4.760;2023-08-06T09:05:00;18.00;90.70
20672;DHT22;10495;50.922;4.760;2023-08-06T09:07:34;17.90;91.00
20672;DHT22;10495;50.922;4.760;2023-08-06T09:10:03;17.70;91.30
20672;DHT22;10495;50.922;4.760;2023-08-06T09:12:31;17.50;91.80
20672;DHT22;10495;50.922;4.760;2023-08-06T09:14:57;17.50;92.00
20672;DHT22;10495;50.922;4.760;2023-08-06T09:17:23;17.40;92.00
20672;DHT22;10495;50.922;4.760;2023-08-06T09:19:49;17.60;91.70
20672;DHT22;10495;50.922;4.760;2023-08-06T09:22:15;17.50;91.50
20672;DHT22;10495;50.922;4.760;2023-08-06T09:24:41;17.50;91.50
20672;DHT22;10495;50.922;4.760;2023-08-06T09:27:11;17.30;91.70
20672;DHT22;10495;50.922;4.760;2023-08-06T09:29:41;17.20;92.20
20672;DHT22;10495;50.922;4.760;2023-08-06T09:32:07;17.00;92.30
20672;DHT22;10495;50.922;4.760;2023-08-06T09:34:32;17.00;92.40
20672;DHT22;10495;50.922;4.760;2023-08-06T09:36:58;17.10;92.20
20672;DHT22;10495;50.922;4.760;2023-08-06T09:39:28;17.10;92.00
20672;DHT22;10495;50.922;4.760;2023-08-06T09:41:59;17.10;92.10
20672;DHT22;10495;50.922;4.760;2023-08-06T09:44:28;17.00;92.50
20672;DHT22;10495;50.922;4.760;2023-08-06T09:46:54;17.10;92.50
20672;DHT22;10495;50.922;4.760;2023-08-06T09:49:41;17.10;92.60
20672;DHT22;10495;50.922;4.760;2023-08-06T09:52:12;17.30;92.40
20672;DHT22;10495;50.922;4.760;2023-08-06T09:54:38;17.20;92.70
20672;DHT22;10495;50.922;4.760;2023-08-06T09:57:04;17.30;92.10
20672;DHT22;10495;50.922;4.760;2023-08-06T09:59:32;17.40;92.30
20672;DHT22;10495;50.922;4.760;2023-08-06T10:01:58;17.30;92.40
20672;DHT22;10495;50.922;4.760;2023-08-06T10:04:24;17.30;92.50
20672;DHT22;10495;50.922;4.760;2023-08-06T10:06:49;17.30;92.60
20672;DHT22;10495;50.922;4.760;2023-08-06T10:09:15;17.40;92.00
20672;DHT22;10495;50.922;4.760;2023-08-06T10:11:42;17.40;91.90
20672;DHT22;10495;50.922;4.760;2023-08-06T10:14:20;17.40;92.00
20672;DHT22;10495;50.922;4.760;2023-08-06T10:16:47;17.40;91.80
20672;DHT22;10495;50.922;4.760;2023-08-06T10:19:15;17.10;92.20
20672;DHT22;10495;50.922;4.760;2023-08-06T10:22:15;16.90;92.00
20672;DHT22;10495;50.922;4.760;2023-08-06T10:24:55;16.90;92.20
20672;DHT22;10495;50.922;4.760;2023-08-06T10:27:30;16.70;92.60
20672;DHT22;10495;50.922;4.760;2023-08-06T10:33:02;16.50;93.00
20672;DHT22;10495;50.922;4.760;2023-08-06T10:35:40;16.20;93.50
20672;DHT22;10495;50.922;4.760;2023-08-06T10:38:07;16.20;93.50
20672;DHT22;10495;50.922;4.760;2023-08-06T10:40:33;16.20;93.50
20672;DHT22;10495;50.922;4.760;2023-08-06T10:43:03;16.30;93.60
20672;DHT22;10495;50.922;4.760;2023-08-06T10:45:34;16.30;93.80
20672;DHT22;10495;50.922;4.760;2023-08-06T10:48:00;16.40;94.00
20672;DHT22;10495;50.922;4.760;2023-08-06T10:50:25;16.60;93.70
20672;DHT22;10495;50.922;4.760;2023-08-06T10:52:51;16.70;93.50
20672;DHT22;10495;50.922;4.760;2023-08-06T10:55:28;16.60;93.60
20672;DHT22;10495;50.922;4.760;2023-08-06T10:57:55;16.70;93.40
20672;DHT22;10495;50.922;4.760;2023-08-06T11:00:22;16.60;93.20
20672;DHT22;10495;50.922;4.760;2023-08-06T11:02:51;16.70;93.10
20672;DHT22;10495;50.922;4.760;2023-08-06T11:05:18;16.70;92.80
20672;DHT22;10495;50.922;4.760;2023-08-06T11:07:43;16.60;92.90
20672;DHT22;10495;50.922;4.760;2023-08-06T11:10:11;16.60;93.20
20672;DHT22;10495;50.922;4.760;2023-08-06T11:12:37;16.70;92.90
20672;DHT22;10495;50.922;4.760;2023-08-06T11:15:04;16.60;93.20
20672;DHT22;10495;50.922;4.760;2023-08-06T11:17:31;16.70;93.20
20672;DHT22;10495;50.922;4.760;2023-08-06T11:20:04;16.80;93.20
20672;DHT22;10495;50.922;4.760;2023-08-06T11:22:30;16.60;93.50
20672;DHT22;10495;50.922;4.760;2023-08-06T11:24:57;16.70;93.40
20672;DHT22;10495;50.922;4.760;2023-08-06T11:27:23;16.70;93.30
20672;DHT22;10495;50.922;4.760;2023-08-06T11:29:48;16.60;93.30
20672;DHT22;10495;50.922;4.760;2023-08-06T11:32:14;16.70;93.60
20672;DHT22;10495;50.922;4.760;2023-08-06T11:34:40;16.90;93.40
20672;DHT22;10495;50.922;4.760;2023-08-06T11:37:07;17.00;93.20
20672;DHT22;10495;50.922;4.760;2023-08-06T11:39:33;17.00;92.50
20672;DHT22;10495;50.922;4.760;2023-08-06T11:41:59;17.20;92.20
20672;DHT22;10495;50.922;4.760;2023-08-06T11:44:31;17.00;92.40
20672;DHT22;10495;50.922;4.760;2023-08-06T11:47:00;16.90;92.80
20672;DHT22;10495;50.922;4.760;2023-08-06T11:49:49;16.80;93.00
20672;DHT22;10495;50.922;4.760;2023-08-06T11:52:22;17.00;93.00
20672;DHT22;10495;50.922;4.760;2023-08-06T11:55:08;16.90;92.90
20672;DHT22;10495;50.922;4.760;2023-08-06T11:57:38;16.90;92.60
20672;DHT22;10495;50.922;4.760;2023-08-06T12:02:34;16.90;92.70
20672;DHT22;10495;50.922;4.760;2023-08-06T12:05:11;17.00;92.90
20672;DHT22;10495;50.922;4.760;2023-08-06T12:07:41;17.00;92.50
20672;DHT22;10495;50.922;4.760;2023-08-06T12:10:08;16.90;92.40
20672;DHT22;10495;50.922;4.760;2023-08-06T12:12:34;16.90;92.50
20672;DHT22;10495;50.922;4.760;2023-08-06T12:15:01;16.80;92.70
20672;DHT22;10495;50.922;4.760;2023-08-06T12:17:26;16.70;92.70
20672;DHT22;10495;50.922;4.760;2023-08-06T12:19:52;16.70;92.70
20672;DHT22;10495;50.922;4.760;2023-08-06T12:22:18;16.70;92.70
20672;DHT22;10495;50.922;4.760;2023-08-06T12:24:45;16.90;92.50
20672;DHT22;10495;50.922;4.760;2023-08-06T12:27:11;16.80;92.80
20672;DHT22;10495;50.922;4.760;2023-08-06T12:29:41;16.80;92.70
20672;DHT22;10495;50.922;4.760;2023-08-06T12:32:08;16.80;92.60
20672;DHT22;10495;50.922;4.760;2023-08-06T12:34:33;17.00;92.40
20672;DHT22;10495;50.922;4.760;2023-08-06T12:36:59;16.90;92.40
20672;DHT22;10495;50.922;4.760;2023-08-06T12:39:25;17.00;92.40
20672;DHT22;10495;50.922;4.760;2023-08-06T12:41:54;17.00;92.30
20672;DHT22;10495;50.922;4.760;2023-08-06T12:44:20;16.90;92.40
20672;DHT22;10495;50.922;4.760;2023-08-06T12:46:45;16.90;92.60
20672;DHT22;10495;50.922;4.760;2023-08-06T12:49:11;17.00;92.30
20672;DHT22;10495;50.922;4.760;2023-08-06T12:51:36;17.00;92.40
20672;DHT22;10495;50.922;4.760;2023-08-06T12:54:02;16.70;92.50
20672;DHT22;10495;50.922;4.760;2023-08-06T12:56:28;16.60;92.80
20672;DHT22;10495;50.922;4.760;2023-08-06T12:58:54;16.70;92.90
20672;DHT22;10495;50.922;4.760;2023-08-06T13:01:20;16.70;92.90
20672;DHT22;10495;50.922;4.760;2023-08-06T13:03:45;16.80;93.10
20672;DHT22;10495;50.922;4.760;2023-08-06T13:06:11;16.80;92.80
20672;DHT22;10495;50.922;4.760;2023-08-06T13:08:37;16.80;92.70
20672;DHT22;10495;50.922;4.760;2023-08-06T13:11:04;16.80;92.70
20672;DHT22;10495;50.922;4.760;2023-08-06T13:13:30;16.70;93.00
20672;DHT22;10495;50.922;4.760;2023-08-06T13:15:56;16.60;93.30
20672;DHT22;10495;50.922;4.760;2023-08-06T13:18:21;16.60;93.30
20672;DHT22;10495;50.922;4.760;2023-08-06T13:20:47;16.80;93.40
20672;DHT22;10495;50.922;4.760;2023-08-06T13:23:15;16.80;93.00
20672;DHT22;10495;50.922;4.760;2023-08-06T13:25:42;16.90;92.70
20672;DHT22;10495;50.922;4.760;2023-08-06T13:28:08;17.00;92.50
20672;DHT22;10495;50.922;4.760;2023-08-06T13:30:33;17.00;92.50
20672;DHT22;10495;50.922;4.760;2023-08-06T13:33:01;17.00;92.60
20672;DHT22;10495;50.922;4.760;2023-08-06T13:35:27;17.00;92.50
20672;DHT22;10495;50.922;4.760;2023-08-06T13:37:52;16.90;92.40
20672;DHT22;10495;50.922;4.760;2023-08-06T13:40:19;16.80;92.40
20672;DHT22;10495;50.922;4.760;2023-08-06T13:42:45;16.80;92.30
20672;DHT22;10495;50.922;4.760;2023-08-06T13:45:11;16.80;92.30
20672;DHT22;10495;50.922;4.760;2023-08-06T13:47:36;16.80;92.10
20672;DHT22;10495;50.922;4.760;2023-08-06T13:50:02;16.70;92.00
20672;DHT22;10495;50.922;4.760;2023-08-06T13:52:29;16.60;92.00
20672;DHT22;10495;50.922;4.760;2023-08-06T13:54:54;16.50;92.60
20672;DHT22;10495;50.922;4.760;2023-08-06T13:57:20;16.30;92.60
20672;DHT22;10495;50.922;4.760;2023-08-06T13:59:45;16.30;92.40
20672;DHT22;10495;50.922;4.760;2023-08-06T14:02:11;16.30;92.70
20672;DHT22;10495;50.922;4.760;2023-08-06T14:04:37;16.30;92.70
20672;DHT22;10495;50.922;4.760;2023-08-06T14:07:03;16.20;92.70
20672;DHT22;10495;50.922;4.760;2023-08-06T14:09:29;16.30;92.70
20672;DHT22;10495;50.922;4.760;2023-08-06T14:11:55;16.20;92.80
20672;DHT22;10495;50.922;4.760;2023-08-06T14:14:20;16.10;92.80
20672;DHT22;10495;50.922;4.760;2023-08-06T14:16:51;16.00;93.00
20672;DHT22;10495;50.922;4.760;2023-08-06T14:19:17;16.20;93.10
20672;DHT22;10495;50.922;4.760;2023-08-06T14:21:43;16.10;93.30
20672;DHT22;10495;50.922;4.760;2023-08-06T14:24:08;16.30;93.10
20672;DHT22;10495;50.922;4.760;2023-08-06T14:26:34;16.30;92.90
20672;DHT22;10495;50.922;4.760;2023-08-06T14:29:01;16.20;92.70
20672;DHT22;10495;50.922;4.760;2023-08-06T14:31:26;16.10;93.10
20672;DHT22;10495;50.922;4.760;2023-08-06T14:33:52;16.20;92.50
20672;DHT22;10495;50.922;4.760;2023-08-06T14:36:18;16.20;92.80
20672;DHT22;10495;50.922;4.760;2023-08-06T14:38:44;16.20;93.10
20672;DHT22;10495;50.922;4.760;2023-08-06T14:41:10;16.10;93.50
20672;DHT22;10495;50.922;4.760;2023-08-06T14:43:36;16.20;93.30
20672;DHT22;10495;50.922;4.760;2023-08-06T14:46:02;16.30;93.10
20672;DHT22;10495;50.922;4.760;2023-08-06T14:48:29;16.30;93.20
20672;DHT22;10495;50.922;4.760;2023-08-06T14:50:55;16.40;92.90
20672;DHT22;10495;50.922;4.760;2023-08-06T14:53:21;16.40;93.10
20672;DHT22;10495;50.922;4.760;2023-08-06T14:55:46;16.40;92.90
20672;DHT22;10495;50.922;4.760;2023-08-06T14:58:12;16.50;92.80
20672;DHT22;10495;50.922;4.760;2023-08-06T15:00:38;16.50;93.00
20672;DHT22;10495;50.922;4.760;2023-08-06T15:03:03;16.50;92.90
20672;DHT22;10495;50.922;4.760;2023-08-06T15:05:29;16.50;92.90
20672;DHT22;10495;50.922;4.760;2023-08-06T15:07:54;16.20;93.10
20672;DHT22;10495;50.922;4.760;2023-08-06T15:10:20;16.20;93.30
20672;DHT22;10495;50.922;4.760;2023-08-06T15:12:46;16.40;92.60
20672;DHT22;10495;50.922;4.760;2023-08-06T15:15:12;16.20;93.10
20672;DHT22;10495;50.922;4.760;2023-08-06T15:17:37;16.30;93.00
20672;DHT22;10495;50.922;4.760;2023-08-06T15:20:04;16.30;93.10
20672;DHT22;10495;50.922;4.760;2023-08-06T15:22:30;16.30;93.00
20672;DHT22;10495;50.922;4.760;2023-08-06T15:25:00;16.40;93.10
20672;DHT22;10495;50.922;4.760;2023-08-06T15:27:26;16.50;92.70
20672;DHT22;10495;50.922;4.760;2023-08-06T15:29:52;16.50;93.20
20672;DHT22;10495;50.922;4.760;2023-08-06T15:32:17;16.60;93.00
20672;DHT22;10495;50.922;4.760;2023-08-06T15:34:43;16.50;93.20